Time;durP1;ratioP1;P1;durP2;ratioP2;P2;SDS_P1;SDS_P2;PMS_P1;PMS_P2;Temp;Humidity;BMP_temperature;BMP_pressure;BME280_temperature;BME280_humidity;BME280_pressure;Samples;Min_cycle;Max_cycle;Signal;HPM_P1;HPM_P2
2023/03/01 00:01:21;;;;;;;39.05;15.68;;;;;;;-2.61;100.00;94325.72;5029898;28;20054;-62
2023/03/01 00:03:48;;;;;;;31.95;13.68;;;;;;;-2.55;100.00;94325.56;5029553;28;20397;-59
2023/03/01 00:06:15;;;;;;;31.25;13.52;;;;;;;-2.54;100.00;94322.53;5029839;28;20090;-59
2023/03/01 00:08:42;;;;;;;29.67;13.68;;;;;;;-2.53;100.00;94318.75;5029225;28;20095;-58
2023/03/01 00:11:27;;;;;;;32.33;13.83;;;;;;;-2.51;100.00;94313.84;5043098;28;20040;-58
2023/03/01 00:13:57;;;;;;;32.50;15.05;;;;;;;-2.56;100.00;94319.38;5029178;28;20619;-60
2023/03/01 00:16:29;;;;;;;30.48;13.63;;;;;;;-2.41;100.00;94315.38;5029716;28;20049;-60
2023/03/01 00:18:57;;;;;;;36.22;14.70;;;;;;;-2.35;100.00;94316.00;5029110;28;21922;-59
2023/03/01 00:21:26;;;;;;;30.80;13.68;;;;;;;-2.39;100.00;94318.53;5029542;28;20057;-58
2023/03/01 00:23:53;;;;;;;31.40;13.57;;;;;;;-2.30;100.00;94316.56;5031009;28;21658;-59
2023/03/01 00:26:22;;;;;;;33.00;14.32;;;;;;;-2.29;100.00;94312.78;5029436;28;20107;-59
2023/03/01 00:28:49;;;;;;;31.30;13.88;;;;;;;-2.45;100.00;94303.72;5029129;28;20103;-59
2023/03/01 00:31:19;;;;;;;28.98;13.07;;;;;;;-2.29;100.00;94303.94;5029279;28;20110;-60
2023/03/01 00:33:46;;;;;;;30.05;13.25;;;;;;;-2.33;100.00;94303.81;5029069;28;20079;-59
2023/03/01 00:36:15;;;;;;;31.60;13.43;;;;;;;-2.16;100.00;94304.81;5029671;28;20102;-60
2023/03/01 00:38:44;;;;;;;34.25;14.52;;;;;;;-2.10;100.00;94301.59;5028654;28;20114;-59
2023/03/01 00:41:16;;;;;;;30.05;13.70;;;;;;;-2.08;100.00;94307.44;5029645;28;20042;-58
2023/03/01 00:43:46;;;;;;;32.45;14.48;;;;;;;-2.04;100.00;94296.84;5032063;28;20054;-60
2023/03/01 00:46:19;;;;;;;31.80;14.30;;;;;;;-2.05;100.00;94304.13;5032305;28;20040;-61
2023/03/01 00:48:46;;;;;;;31.03;13.57;;;;;;;-2.00;100.00;94303.13;5027148;28;20033;-59
2023/03/01 00:51:25;;;;;;;32.05;14.57;;;;;;;-2.02;100.00;94291.91;5013638;28;20041;-59
2023/03/01 00:53:54;;;;;;;30.92;14.13;;;;;;;-1.95;100.00;94289.50;5026169;28;20045;-59
2023/03/01 00:56:21;;;;;;;31.95;14.45;;;;;;;-1.91;100.00;94292.31;5031806;28;20035;-59
2023/03/01 00:58:48;;;;;;;31.38;14.38;;;;;;;-1.94;100.00;94296.44;5032767;28;20106;-59
2023/03/01 01:01:20;;;;;;;30.23;13.70;;;;;;;-1.83;100.00;94286.09;5033267;28;20041;-59
2023/03/01 01:03:50;;;;;;;32.50;14.73;;;;;;;-1.88;100.00;94284.38;5032966;28;20045;-59
2023/03/01 01:06:35;;;;;;;32.58;14.20;;;;;;;-1.80;100.00;94277.38;5046472;28;20053;-62
2023/03/01 01:09:04;;;;;;;34.28;14.88;;;;;;;-1.83;100.00;94278.03;5019118;28;21408;-59
2023/03/01 01:11:31;;;;;;;32.20;14.65;;;;;;;-1.83;100.00;94273.44;5030826;28;20050;-59
2023/03/01 01:13:58;;;;;;;43.40;18.53;;;;;;;-1.78;100.00;94263.59;5033084;28;20103;-60
2023/03/01 01:16:27;;;;;;;40.03;16.95;;;;;;;-1.70;100.00;94262.72;5032892;28;20072;-60
2023/03/01 01:18:56;;;;;;;36.03;15.55;;;;;;;-1.72;100.00;94263.06;5032289;28;20888;-60
2023/03/01 01:21:24;;;;;;;32.53;14.02;;;;;;;-1.64;100.00;94256.81;5032846;28;20114;-60
2023/03/01 01:23:51;;;;;;;31.45;14.35;;;;;;;-1.63;100.00;94257.59;5032193;28;20045;-60
2023/03/01 01:26:21;;;;;;;31.40;14.60;;;;;;;-1.68;100.00;94258.59;5032861;28;20115;-60
2023/03/01 01:28:48;;;;;;;32.35;14.50;;;;;;;-1.65;100.00;94254.44;5037717;28;20063;-59
2023/03/01 01:31:15;;;;;;;31.50;14.02;;;;;;;-1.68;100.00;94249.75;5038759;28;20046;-60
2023/03/01 01:33:42;;;;;;;30.98;14.38;;;;;;;-1.61;100.00;94245.41;5032472;28;20095;-59
2023/03/01 01:36:09;;;;;;;32.33;14.23;;;;;;;-1.56;100.00;94246.31;5032686;28;20045;-60
2023/03/01 01:38:37;;;;;;;32.53;14.70;;;;;;;-1.73;100.00;94247.25;5032159;28;20049;-59
2023/03/01 01:41:05;;;;;;;34.70;15.02;;;;;;;-1.76;100.00;94237.94;5032805;28;20042;-59
2023/03/01 01:43:43;;;;;;;33.35;15.15;;;;;;;-1.62;100.00;94237.66;5031707;28;20052;-59
2023/03/01 01:46:27;;;;;;;35.45;15.95;;;;;;;-1.55;100.00;94231.72;5032567;28;20118;-60
2023/03/01 01:49:01;;;;;;;36.45;16.08;;;;;;;-1.75;100.00;94225.25;5025008;28;20473;-60
2023/03/01 01:51:38;;;;;;;34.17;14.43;;;;;;;-1.68;100.00;94229.00;5012749;28;20068;-62
2023/03/01 01:54:13;;;;;;;34.38;14.38;;;;;;;-1.53;100.00;94218.72;5027740;28;20048;-62
2023/03/01 01:56:44;;;;;;;34.30;16.08;;;;;;;-1.73;100.00;94223.81;5031628;28;20046;-59
2023/03/01 01:59:11;;;;;;;33.00;14.52;;;;;;;-1.55;100.00;94215.59;5032561;28;20093;-62
2023/03/01 02:01:38;;;;;;;30.77;13.93;;;;;;;-1.56;100.00;94214.03;5031746;28;20045;-59
2023/03/01 02:04:08;;;;;;;29.63;13.33;;;;;;;-1.51;100.00;94214.59;5032385;28;20460;-59
2023/03/01 02:06:44;;;;;;;31.65;14.77;;;;;;;-1.53;100.00;94219.53;5031653;28;20049;-59
2023/03/01 02:09:15;;;;;;;35.03;15.68;;;;;;;-1.55;100.00;94211.00;5032224;28;20099;-59
2023/03/01 02:11:44;;;;;;;32.03;14.30;;;;;;;-1.52;100.00;94218.41;5044916;28;20049;-62
2023/03/01 02:14:10;;;;;;;32.22;14.02;;;;;;;-1.56;100.00;94214.81;5031859;28;20059;-60
2023/03/01 02:16:37;;;;;;;32.33;14.83;;;;;;;-1.51;100.00;94214.59;5030258;28;20053;-59
2023/03/01 02:19:05;;;;;;;33.00;14.43;;;;;;;-1.57;100.00;94210.56;5031888;28;20452;-61
2023/03/01 02:21:34;;;;;;;31.75;14.43;;;;;;;-1.68;100.00;94212.84;5031435;28;20072;-62
2023/03/01 02:24:14;;;;;;;33.45;14.75;;;;;;;-1.44;100.00;94195.22;5031673;28;20042;-62
2023/03/01 02:26:45;;;;;;;32.55;13.85;;;;;;;-1.45;100.00;94196.31;5031592;28;20049;-59
2023/03/01 02:29:12;;;;;;;31.97;14.20;;;;;;;-1.56;100.00;94201.34;5031290;28;20444;-61
2023/03/01 02:31:41;;;;;;;34.42;14.85;;;;;;;-1.80;100.00;94204.72;5031351;28;20045;-62
2023/03/01 02:34:13;;;;;;;33.97;14.18;;;;;;;-1.62;100.00;94200.75;5031565;28;20679;-62
2023/03/01 02:36:47;;;;;;;31.08;15.10;;;;;;;-1.73;100.00;94204.19;5042022;28;20045;-61
2023/03/01 02:39:28;;;;;;;30.42;13.98;;;;;;;-1.51;100.00;94197.66;5032465;28;20095;-61
2023/03/01 02:41:57;;;;;;;32.23;14.67;;;;;;;-1.66;100.00;94194.47;5030708;28;20791;-60
2023/03/01 02:44:24;;;;;;;31.77;13.93;;;;;;;-1.49;100.00;94182.75;5031219;28;20541;-62
2023/03/01 02:46:55;;;;;;;31.02;14.43;;;;;;;-1.52;100.00;94182.63;5030808;28;20045;-60
2023/03/01 02:49:31;;;;;;;31.50;14.68;;;;;;;-1.51;100.00;94179.63;5031117;28;20064;-60
2023/03/01 02:52:28;;;;;;;32.45;14.63;;;;;;;-1.35;100.00;94173.59;5030438;28;20464;-60
2023/03/01 02:55:00;;;;;;;30.27;14.43;;;;;;;-1.39;100.00;94176.16;5030117;28;20803;-60
2023/03/01 02:57:29;;;;;;;34.42;15.40;;;;;;;-1.54;100.00;94166.03;5016997;28;20111;-57
2023/03/01 02:59:59;;;;;;;34.40;14.90;;;;;;;-1.40;100.00;94163.81;5015052;28;20037;-60
2023/03/01 03:02:35;;;;;;;34.38;14.55;;;;;;;-1.35;100.00;94173.59;5031029;28;20409;-60
2023/03/01 03:05:08;;;;;;;31.52;14.43;;;;;;;-1.36;100.00;94166.63;5029264;28;20998;-60
2023/03/01 03:07:37;;;;;;;32.83;14.33;;;;;;;-1.48;100.00;94160.09;5030635;28;20037;-60
2023/03/01 03:10:06;;;;;;;35.42;15.38;;;;;;;-1.51;100.00;94162.66;5018094;28;20075;-60
2023/03/01 03:12:33;;;;;;;32.70;15.02;;;;;;;-1.44;100.00;94158.31;5030276;28;20068;-60
2023/03/01 03:15:00;;;;;;;35.60;15.85;;;;;;;-1.57;100.00;94154.03;5029277;28;20058;-63
2023/03/01 03:17:27;;;;;;;36.25;15.65;;;;;;;-1.42;100.00;94155.28;5030564;28;20041;-59
2023/03/01 03:19:53;;;;;;;35.70;14.63;;;;;;;-1.31;100.00;94163.72;5033795;28;20047;-60
2023/03/01 03:22:20;;;;;;;34.90;14.43;;;;;;;-1.26;100.00;94161.59;5039388;28;20041;-60
2023/03/01 03:24:47;;;;;;;32.55;14.57;;;;;;;-1.17;100.00;94158.03;5030107;28;20051;-61
2023/03/01 03:27:13;;;;;;;33.67;15.32;;;;;;;-1.27;100.00;94157.34;5029417;28;20030;-61
2023/03/01 03:29:40;;;;;;;35.55;15.65;;;;;;;-1.25;100.00;94157.81;5029769;28;20045;-61
2023/03/01 03:32:07;;;;;;;36.10;14.87;;;;;;;-1.32;100.00;94149.47;5030548;28;20044;-59
2023/03/01 03:34:34;;;;;;;35.00;15.60;;;;;;;-1.37;100.00;94155.06;5030013;28;20072;-60
2023/03/01 03:37:00;;;;;;;37.03;18.23;;;;;;;-1.79;100.00;94155.19;5029988;28;20071;-61
2023/03/01 03:39:34;;;;;;;35.38;15.80;;;;;;;-1.72;100.00;94151.97;5029574;28;20111;-58
2023/03/01 03:42:01;;;;;;;34.10;15.40;;;;;;;-1.47;100.00;94144.72;5030363;28;20042;-60
2023/03/01 03:44:28;;;;;;;41.40;16.43;;;;;;;-1.50;100.00;94142.72;5029667;28;20046;-59
2023/03/01 03:46:55;;;;;;;36.80;15.90;;;;;;;-1.35;100.00;94142.06;5030397;28;20049;-62
2023/03/01 03:49:21;;;;;;;36.00;16.92;;;;;;;-1.71;100.00;94142.75;5030180;28;20051;-62
2023/03/01 03:51:48;;;;;;;35.42;15.55;;;;;;;-1.41;100.00;94141.50;5029589;28;20045;-61
2023/03/01 03:54:15;;;;;;;34.95;15.63;;;;;;;-1.43;100.00;94137.56;5030124;28;20046;-60
2023/03/01 03:56:43;;;;;;;35.67;14.80;;;;;;;-1.51;100.00;94151.91;5021103;28;20042;-60
2023/03/01 03:59:11;;;;;;;39.55;16.58;;;;;;;-1.70;100.00;94150.50;5010880;28;20429;-60
2023/03/01 04:01:37;;;;;;;37.63;15.73;;;;;;;-1.72;100.00;94146.59;5028324;28;20046;-60
2023/03/01 04:04:04;;;;;;;38.58;18.55;;;;;;;-1.86;100.00;94142.28;5030048;28;20041;-60
2023/03/01 04:06:31;;;;;;;35.75;15.10;;;;;;;-1.53;100.00;94143.38;5029633;28;20045;-60
2023/03/01 04:09:02;;;;;;;37.83;14.60;;;;;;;-1.44;100.00;94133.31;5030205;28;20089;-60
2023/03/01 04:11:28;;;;;;;39.47;22.05;;;;;;;-1.85;100.00;94149.25;5028136;28;20782;-61
2023/03/01 04:13:57;;;;;;;36.08;15.10;;;;;;;-1.89;100.00;94134.88;5028790;28;20037;-60
2023/03/01 04:16:24;;;;;;;35.72;15.95;;;;;;;-1.81;100.00;94142.06;5028413;28;20483;-62
2023/03/01 04:18:53;;;;;;;37.53;15.93;;;;;;;-1.73;100.00;94131.53;5029516;28;20041;-61
2023/03/01 04:21:20;;;;;;;37.37;15.00;;;;;;;-1.62;100.00;94133.47;5029868;28;20068;-60
2023/03/01 04:23:47;;;;;;;36.17;15.43;;;;;;;-1.62;100.00;94135.41;5029223;28;21314;-60
2023/03/01 04:26:13;;;;;;;41.42;18.05;;;;;;;-1.64;100.00;94145.72;5029770;28;20045;-59
2023/03/01 04:28:44;;;;;;;35.15;15.32;;;;;;;-1.47;100.00;94136.66;5029409;28;20057;-60
2023/03/01 04:31:13;;;;;;;36.03;15.93;;;;;;;-1.46;100.00;94127.47;5029803;28;20432;-59
2023/03/01 04:33:51;;;;;;;39.37;15.53;;;;;;;-1.81;100.00;94125.94;5028939;28;20401;-60
2023/03/01 04:36:21;;;;;;;35.05;15.73;;;;;;;-1.59;100.00;94131.25;5028622;28;20063;-60
2023/03/01 04:38:48;;;;;;;37.13;16.10;;;;;;;-1.84;100.00;94128.50;5028897;28;20079;-61
2023/03/01 04:41:17;;;;;;;39.83;16.42;;;;;;;-1.58;100.00;94133.63;5029733;28;20387;-59
2023/03/01 04:43:45;;;;;;;38.50;17.95;;;;;;;-1.70;100.00;94128.97;5029047;28;20049;-60
2023/03/01 04:46:14;;;;;;;33.33;14.97;;;;;;;-1.72;100.00;94128.53;5029742;28;20042;-60
2023/03/01 04:48:43;;;;;;;38.67;16.55;;;;;;;-1.63;100.00;94118.47;5028913;28;20056;-60
2023/03/01 04:51:13;;;;;;;39.17;18.52;;;;;;;-1.78;100.00;94121.00;5028263;28;20037;-59
2023/03/01 04:53:40;;;;;;;35.78;15.50;;;;;;;-1.90;100.00;94119.06;5029025;28;20059;-60
2023/03/01 04:56:07;;;;;;;38.60;20.95;;;;;;;-2.00;100.00;94128.31;5025899;28;20041;-61
2023/03/01 04:58:34;;;;;;;38.40;15.93;;;;;;;-1.85;100.00;94126.91;5010350;28;20048;-60
2023/03/01 05:01:01;;;;;;;38.83;15.45;;;;;;;-1.72;100.00;94115.06;5023372;28;20044;-60
2023/03/01 05:03:28;;;;;;;44.78;16.25;;;;;;;-1.60;100.00;94111.63;5028800;28;20084;-59
2023/03/01 05:05:59;;;;;;;34.28;15.05;;;;;;;-1.57;100.00;94123.63;5028209;28;20045;-60
2023/03/01 05:08:26;;;;;;;37.45;17.17;;;;;;;-2.17;100.00;94117.72;5016431;28;20048;-61
2023/03/01 05:10:54;;;;;;;35.57;15.20;;;;;;;-2.00;100.00;94101.44;5026970;28;20063;-62
2023/03/01 05:13:21;;;;;;;37.40;15.73;;;;;;;-1.78;100.00;94115.63;5029202;28;20688;-62
2023/03/01 05:15:56;;;;;;;35.75;15.70;;;;;;;-1.59;100.00;94112.41;5027731;28;20045;-62
2023/03/01 05:18:27;;;;;;;34.20;15.27;;;;;;;-1.62;100.00;94109.25;5028307;28;20061;-60
2023/03/01 05:20:58;;;;;;;35.50;15.20;;;;;;;-1.57;100.00;94105.59;5028287;28;21748;-60
2023/03/01 05:23:25;;;;;;;34.33;14.50;;;;;;;-1.71;100.00;94108.59;5029304;28;20394;-62
2023/03/01 05:25:52;;;;;;;36.85;16.73;;;;;;;-1.84;100.00;94109.66;5028850;28;20037;-60
2023/03/01 05:28:20;;;;;;;36.10;16.05;;;;;;;-1.81;100.00;94109.00;5029554;28;20067;-62
2023/03/01 05:30:47;;;;;;;36.03;15.85;;;;;;;-2.01;100.00;94100.66;5031989;28;20088;-60
2023/03/01 05:33:14;;;;;;;38.75;17.88;;;;;;;-1.95;100.00;94097.75;5032833;28;20108;-60
2023/03/01 05:35:43;;;;;;;35.43;15.77;;;;;;;-1.87;100.00;94102.25;5032078;28;20046;-60
2023/03/01 05:38:14;;;;;;;35.58;15.63;;;;;;;-1.97;100.00;94103.47;5032479;28;20041;-60
2023/03/01 05:40:46;;;;;;;35.60;15.73;;;;;;;-1.92;100.00;94103.25;5032343;28;20044;-62
2023/03/01 05:43:14;;;;;;;37.42;16.00;;;;;;;-1.84;100.00;94102.38;5032453;28;20037;-60
2023/03/01 05:45:42;;;;;;;34.33;14.55;;;;;;;-1.73;100.00;94107.34;5031815;28;20405;-62
2023/03/01 05:48:10;;;;;;;38.17;15.27;;;;;;;-1.75;100.00;94101.50;5030999;28;20076;-62
2023/03/01 05:50:40;;;;;;;35.58;15.32;;;;;;;-1.61;100.00;94099.28;5031830;28;20486;-61
2023/03/01 05:53:17;;;;;;;32.53;13.95;;;;;;;-1.84;100.00;94097.00;5045584;28;20459;-61
2023/03/01 05:55:45;;;;;;;38.35;16.92;;;;;;;-1.92;100.00;94097.09;5031795;28;20441;-60
2023/03/01 05:58:19;;;;;;;35.20;15.50;;;;;;;-1.87;100.00;94102.25;5031566;28;20440;-60
2023/03/01 06:00:48;;;;;;;117.67;49.53;;;;;;;-1.78;100.00;94102.97;5026059;28;20060;-60
2023/03/01 06:03:16;;;;;;;56.78;23.52;;;;;;;-1.69;100.00;94108.22;5011762;28;20042;-60
2023/03/01 06:05:43;;;;;;;38.65;16.77;;;;;;;-2.06;100.00;94102.75;5028158;28;20050;-60
2023/03/01 06:08:11;;;;;;;35.20;15.77;;;;;;;-2.01;100.00;94097.97;5031611;28;20037;-59
2023/03/01 06:10:38;;;;;;;35.42;15.93;;;;;;;-1.74;100.00;94087.72;5031119;28;20042;-60
2023/03/01 06:13:05;;;;;;;37.83;16.23;;;;;;;-1.86;100.00;94091.16;5031756;28;20037;-60
2023/03/01 06:15:32;;;;;;;33.17;14.50;;;;;;;-1.82;100.00;94094.75;5013445;28;20071;-62
2023/03/01 06:17:59;;;;;;;37.20;15.93;;;;;;;-2.03;100.00;94094.03;5029784;28;20095;-60
2023/03/01 06:20:28;;;;;;;37.63;15.75;;;;;;;-1.78;100.00;94094.88;5029821;28;20586;-63
2023/03/01 06:22:55;;;;;;;36.67;15.50;;;;;;;-1.68;100.00;94088.28;5029973;28;21979;-62
2023/03/01 06:25:24;;;;;;;35.83;15.07;;;;;;;-1.57;100.00;94091.34;5029421;28;20044;-61
2023/03/01 06:27:52;;;;;;;34.30;14.63;;;;;;;-1.78;100.00;94096.78;5042136;28;20045;-61
2023/03/01 06:30:21;;;;;;;35.65;15.43;;;;;;;-1.67;100.00;94106.00;5030606;28;20045;-61
2023/03/01 06:32:49;;;;;;;34.97;14.57;;;;;;;-1.89;100.00;94096.41;5029969;28;20071;-61
2023/03/01 06:35:17;;;;;;;37.35;15.38;;;;;;;-1.87;100.00;94097.69;5029131;28;20478;-61
2023/03/01 06:37:46;;;;;;;30.70;13.53;;;;;;;-1.64;100.00;94100.75;5029589;28;20056;-62
2023/03/01 06:40:13;;;;;;;37.15;18.75;;;;;;;-2.09;100.00;94101.53;5029771;28;20079;-61
2023/03/01 06:42:43;;;;;;;32.15;13.60;;;;;;;-1.80;100.00;94094.44;5029534;28;20079;-62
2023/03/01 06:45:10;;;;;;;35.40;15.13;;;;;;;-1.78;100.00;94104.88;5030219;28;20490;-61
2023/03/01 06:47:37;;;;;;;36.38;18.20;;;;;;;-2.17;100.00;94094.31;5018211;28;20050;-61
2023/03/01 06:50:04;;;;;;;34.77;14.77;;;;;;;-1.95;100.00;94101.25;5024614;28;20045;-61
2023/03/01 06:52:31;;;;;;;39.47;16.20;;;;;;;-1.93;100.00;94101.69;5028793;28;20046;-61
2023/03/01 06:54:58;;;;;;;37.33;15.50;;;;;;;-1.64;100.00;94099.97;5028388;28;20391;-60
2023/03/01 06:57:26;;;;;;;37.95;16.75;;;;;;;-1.53;100.00;94095.72;5029833;28;20534;-60
2023/03/01 06:59:52;;;;;;;36.38;16.33;;;;;;;-1.47;100.00;94094.41;5029352;28;20364;-59
2023/03/01 07:02:19;;;;;;;36.80;15.67;;;;;;;-1.60;100.00;94098.19;5010995;28;20095;-60
2023/03/01 07:04:46;;;;;;;33.65;14.38;;;;;;;-1.55;100.00;94100.66;5015463;28;20050;-60
2023/03/01 07:07:12;;;;;;;50.42;18.77;;;;;;;-1.54;100.00;94104.91;5029573;28;20053;-60
2023/03/01 07:09:39;;;;;;;32.25;14.48;;;;;;;-1.45;100.00;94107.50;5027871;28;20310;-60
2023/03/01 07:12:06;;;;;;;38.90;15.70;;;;;;;-1.61;100.00;94105.47;5029681;28;20048;-60
2023/03/01 07:14:33;;;;;;;31.50;14.07;;;;;;;-1.42;100.00;94091.47;5027982;28;20072;-62
2023/03/01 07:17:00;;;;;;;35.42;17.02;;;;;;;-1.70;100.00;94104.00;5029290;28;20041;-60
2023/03/01 07:19:27;;;;;;;33.70;15.00;;;;;;;-1.72;100.00;94082.00;5029577;28;20099;-60
2023/03/01 07:21:55;;;;;;;32.13;14.75;;;;;;;-1.57;100.00;94083.25;5028696;28;20881;-62
2023/03/01 07:24:22;;;;;;;38.92;15.45;;;;;;;-1.39;100.00;94083.84;5029470;28;20049;-62
2023/03/01 07:26:50;;;;;;;33.77;14.20;;;;;;;-1.37;100.00;94086.97;5028912;28;20053;-60
2023/03/01 07:29:17;;;;;;;38.25;15.85;;;;;;;-1.63;100.00;94086.19;5029072;28;20479;-62
2023/03/01 07:31:45;;;;;;;33.13;14.75;;;;;;;-1.79;100.00;94085.25;5028852;28;20506;-61
2023/03/01 07:34:11;;;;;;;35.95;14.45;;;;;;;-1.62;100.00;94079.66;5029417;28;20048;-61
2023/03/01 07:36:39;;;;;;;32.22;14.95;;;;;;;-1.61;100.00;94080.44;5028423;28;20042;-59
2023/03/01 07:39:06;;;;;;;32.87;14.93;;;;;;;-1.78;100.00;94083.34;5029413;28;20045;-58
2023/03/01 07:41:33;;;;;;;32.63;14.60;;;;;;;-1.56;100.00;94074.84;5028591;28;20048;-60
2023/03/01 07:44:00;;;;;;;37.60;16.15;;;;;;;-1.54;100.00;94071.84;5028969;28;20429;-60
2023/03/01 07:46:27;;;;;;;40.85;16.98;;;;;;;-1.48;100.00;94070.50;5029224;28;20383;-61
2023/03/01 07:48:53;;;;;;;42.03;15.45;;;;;;;-1.34;100.00;94067.47;5013844;28;20037;-59
2023/03/01 07:51:20;;;;;;;32.83;14.73;;;;;;;-1.42;100.00;94074.53;5027264;28;20037;-59
2023/03/01 07:53:48;;;;;;;34.42;14.85;;;;;;;-1.43;100.00;94067.56;5034072;28;20083;-58
2023/03/01 07:56:19;;;;;;;41.50;18.48;;;;;;;-1.73;100.00;94066.97;5036286;28;20037;-59
2023/03/01 07:58:46;;;;;;;35.80;14.82;;;;;;;-1.60;100.00;94068.56;5028242;28;20038;-61
2023/03/01 08:01:18;;;;;;;33.83;14.35;;;;;;;-1.54;100.00;94061.06;5019512;28;20048;-59
2023/03/01 08:03:45;;;;;;;34.73;13.90;;;;;;;-1.17;100.00;94048.38;5008438;28;20042;-59
2023/03/01 08:06:13;;;;;;;35.45;14.20;;;;;;;-1.22;100.00;94054.78;5027580;28;20052;-60
2023/03/01 08:08:40;;;;;;;36.92;15.98;;;;;;;-1.29;100.00;94062.66;5026848;28;20041;-61
2023/03/01 08:11:10;;;;;;;30.95;13.55;;;;;;;-1.22;100.00;94067.47;5028724;28;20398;-59
2023/03/01 08:13:36;;;;;;;30.48;13.75;;;;;;;-1.11;100.00;94057.81;5028448;28;20406;-58
2023/03/01 08:16:06;;;;;;;30.43;13.50;;;;;;;-0.84;100.00;94069.03;5007759;28;20038;-61
2023/03/01 08:18:33;;;;;;;30.60;13.65;;;;;;;-1.08;100.00;94061.75;5022227;28;20050;-58
2023/03/01 08:21:08;;;;;;;35.13;14.18;;;;;;;-1.15;100.00;94066.91;5028390;28;20047;-59
2023/03/01 08:23:35;;;;;;;34.30;20.58;;;;;;;-2.01;100.00;94063.00;5028291;28;20068;-60
2023/03/01 08:26:07;;;;;;;33.83;14.27;;;;;;;-1.77;100.00;94064.19;5028509;28;20398;-60
2023/03/01 08:28:34;;;;;;;33.13;14.80;;;;;;;-1.66;100.00;94065.31;5027916;28;20050;-61
2023/03/01 08:31:01;;;;;;;30.67;13.27;;;;;;;-1.12;100.00;94056.25;5028251;28;20037;-59
2023/03/01 08:33:28;;;;;;;33.08;16.33;;;;;;;-1.50;100.00;94064.66;5028014;28;20083;-60
2023/03/01 08:36:06;;;;;;;35.38;18.90;;;;;;;-1.91;100.00;94055.63;5027185;28;20380;-61
2023/03/01 08:38:34;;;;;;;38.17;15.93;;;;;;;-1.56;100.00;94050.63;5016392;28;20052;-59
2023/03/01 08:41:02;;;;;;;35.30;18.63;;;;;;;-1.94;100.00;94059.75;5028638;28;20045;-60
2023/03/01 08:43:30;;;;;;;31.75;14.15;;;;;;;-1.52;100.00;94050.75;5027748;28;20095;-60
2023/03/01 08:45:57;;;;;;;33.28;14.48;;;;;;;-1.21;100.00;94059.06;5028473;28;20045;-60
2023/03/01 08:48:24;;;;;;;29.38;13.13;;;;;;;-0.86;100.00;94049.72;5027216;28;20421;-58
2023/03/01 08:50:50;;;;;;;32.70;14.02;;;;;;;-0.61;100.00;94051.22;5027616;28;20037;-59
2023/03/01 08:53:17;;;;;;;35.63;15.33;;;;;;;-0.58;100.00;94055.16;5028185;28;20111;-59
2023/03/01 08:55:44;;;;;;;31.67;14.55;;;;;;;-0.51;100.00;94052.66;5027798;28;20058;-60
2023/03/01 08:58:10;;;;;;;35.95;18.75;;;;;;;-1.53;100.00;94052.66;5026787;28;20033;-61
2023/03/01 09:00:39;;;;;;;30.50;13.23;;;;;;;-0.94;100.00;94040.63;5022343;28;20046;-59
2023/03/01 09:03:06;;;;;;;30.45;13.77;;;;;;;-0.67;100.00;94038.31;5007250;28;20175;-61
2023/03/01 09:05:34;;;;;;;27.83;12.73;;;;;;;-1.13;100.00;94032.34;5024109;28;20119;-60
2023/03/01 09:08:00;;;;;;;35.33;19.35;;;;;;;-1.91;100.00;94044.84;5032412;28;20536;-61
2023/03/01 09:10:27;;;;;;;31.92;14.20;;;;;;;-1.51;100.00;94039.66;5030213;28;20045;-58
2023/03/01 09:12:54;;;;;;;33.70;13.63;;;;;;;-0.84;100.00;94031.31;5031923;28;20037;-61
2023/03/01 09:15:21;;;;;;;31.70;14.70;;;;;;;-0.50;100.00;94032.66;5031734;28;20049;-59
2023/03/01 09:17:47;;;;;;;30.47;13.43;;;;;;;-0.67;100.00;94036.41;5031443;28;20058;-59
2023/03/01 09:20:14;;;;;;;33.33;15.75;;;;;;;-1.41;100.00;94041.91;5031796;28;20095;-59
2023/03/01 09:22:41;;;;;;;33.72;13.90;;;;;;;-0.95;100.00;94039.06;5030936;28;20352;-61
2023/03/01 09:25:07;;;;;;;28.85;13.70;;;;;;;-1.18;100.00;94038.75;5030652;28;20034;-61
2023/03/01 09:27:34;;;;;;;33.80;15.88;;;;;;;-1.00;100.00;94050.06;5031186;28;20046;-63
2023/03/01 09:30:02;;;;;;;30.03;12.73;;;;;;;-0.64;100.00;94043.06;5030024;28;20056;-59
2023/03/01 09:32:30;;;;;;;31.02;13.20;;;;;;;-0.34;100.00;94042.72;5030858;28;20417;-57
2023/03/01 09:35:04;;;;;;;32.17;14.85;;;;;;;-0.17;100.00;94042.44;5031392;28;20033;-59
2023/03/01 09:37:37;;;;;;;32.60;15.15;;;;;;;-0.61;100.00;94035.03;5030792;28;20106;-59
2023/03/01 09:40:06;;;;;;;28.13;13.45;;;;;;;-0.06;100.00;94030.03;5029060;28;20060;-59
2023/03/01 09:42:35;;;;;;;27.57;12.17;;;;;;;-0.12;100.00;94022.50;5031174;28;20042;-60
2023/03/01 09:45:11;;;;;;;32.47;14.25;;;;;;;-0.22;100.00;94027.28;5031157;28;20041;-60
2023/03/01 09:47:40;;;;;;;32.97;13.77;;;;;;;-0.27;100.00;94032.13;5030870;28;20050;-60
2023/03/01 09:50:17;;;;;;;30.90;13.70;;;;;;;-0.39;100.00;94035.66;5031137;28;20041;-60
2023/03/01 09:53:09;;;;;;;31.17;13.68;;;;;;;0.34;99.93;94020.22;5030755;28;20042;-58
2023/03/01 09:55:48;;;;;;;33.53;14.10;;;;;;;0.53;97.95;94014.13;5015151;28;20092;-61
2023/03/01 09:58:28;;;;;;;28.45;13.10;;;;;;;0.56;94.99;94021.53;5043628;28;20055;-60
2023/03/01 10:00:59;;;;;;;28.63;13.05;;;;;;;0.15;97.38;94021.69;5023685;28;20368;-59
2023/03/01 10:03:44;;;;;;;28.23;13.20;;;;;;;0.65;97.61;94010.56;5012301;28;20115;-61
2023/03/01 10:06:20;;;;;;;36.97;15.27;;;;;;;0.95;94.11;94010.88;5029992;28;20444;-59
2023/03/01 10:09:15;;;;;;;30.10;13.83;;;;;;;0.62;93.55;94020.13;5030043;28;21562;-60
2023/03/01 10:11:52;;;;;;;28.55;14.45;;;;;;;0.03;97.81;94020.97;5030379;28;20057;-60
2023/03/01 10:14:48;;;;;;;30.95;14.07;;;;;;;0.41;96.16;94027.72;5030615;28;20049;-60
2023/03/01 10:17:36;;;;;;;32.20;15.25;;;;;;;0.40;96.20;94024.22;5029411;28;20402;-61
2023/03/01 10:20:21;;;;;;;30.90;14.73;;;;;;;0.09;98.12;94012.28;5029685;28;20400;-61
2023/03/01 10:22:52;;;;;;;29.17;13.50;;;;;;;0.54;97.55;94013.00;5014918;28;20057;-59
2023/03/01 10:25:40;;;;;;;32.40;13.82;;;;;;;0.96;93.25;94007.78;5029099;28;20049;-59
2023/03/01 10:28:24;;;;;;;30.83;13.85;;;;;;;0.64;94.77;94012.47;5029849;28;20905;-58
2023/03/01 10:30:51;;;;;;;30.13;13.25;;;;;;;1.03;91.65;94001.78;5029899;28;20506;-59
2023/03/01 10:33:30;;;;;;;31.00;16.77;;;;;;;-0.42;100.00;94004.78;5030617;28;20049;-59
2023/03/01 10:35:57;;;;;;;31.47;14.03;;;;;;;0.30;98.47;94000.44;5029441;28;20893;-61
2023/03/01 10:38:24;;;;;;;34.42;17.98;;;;;;;-0.32;98.94;94010.78;5030304;28;20405;-59
2023/03/01 10:40:56;;;;;;;34.00;17.77;;;;;;;-1.03;100.00;94005.75;5029724;28;20041;-58
2023/03/01 10:43:26;;;;;;;31.88;14.85;;;;;;;-0.05;100.00;93999.19;5030512;28;20111;-59
2023/03/01 10:45:53;;;;;;;33.35;14.88;;;;;;;0.55;97.85;93993.75;5029020;28;20868;-59
2023/03/01 10:48:24;;;;;;;29.20;13.07;;;;;;;1.03;93.87;93984.75;5030269;28;20269;-61
2023/03/01 10:51:06;;;;;;;31.02;13.75;;;;;;;0.68;94.38;93989.00;5028124;28;20485;-60
2023/03/01 10:53:40;;;;;;;32.03;14.90;;;;;;;0.83;93.32;93992.84;5030044;28;20038;-60
2023/03/01 10:56:15;;;;;;;32.00;14.25;;;;;;;0.99;92.89;93982.00;5030082;28;20052;-59
2023/03/01 10:59:00;;;;;;;31.38;16.92;;;;;;;0.80;92.45;93985.44;5029188;28;20509;-60
2023/03/01 11:01:31;;;;;;;29.33;14.63;;;;;;;0.47;97.38;93988.53;5028092;28;20053;-57
2023/03/01 11:04:12;;;;;;;29.40;13.57;;;;;;;1.16;93.86;93978.09;5028359;28;20499;-61
2023/03/01 11:06:40;;;;;;;30.88;15.88;;;;;;;1.30;89.11;93972.22;5029226;28;20514;-59
2023/03/01 11:09:19;;;;;;;30.33;14.98;;;;;;;1.03;90.01;93963.94;5028152;28;20456;-59
2023/03/01 11:11:51;;;;;;;29.92;15.63;;;;;;;0.80;92.79;93963.81;5029187;28;20106;-59
2023/03/01 11:14:22;;;;;;;30.37;17.30;;;;;;;0.49;93.12;93970.84;5029629;28;20056;-62
2023/03/01 11:17:05;;;;;;;27.30;13.80;;;;;;;0.12;97.91;93964.91;5041776;28;20566;-60
2023/03/01 11:19:33;;;;;;;31.23;17.25;;;;;;;1.73;88.74;93960.31;5020141;28;20099;-60
2023/03/01 11:22:05;;;;;;;27.40;15.27;;;;;;;0.80;87.94;93966.53;5009829;28;20062;-59
2023/03/01 11:24:38;;;;;;;27.77;13.60;;;;;;;0.98;91.46;93962.28;5027098;28;20033;-60